createdAt,value
2019-02-03T00:00:10.175Z,100672.00
2019-02-03T00:01:20.691Z,100675.67
2019-02-03T00:02:27.369Z,100680.72
2019-02-03T00:03:35.562Z,100678.92
2019-02-03T00:04:42.269Z,100678.84
2019-02-03T00:05:49.058Z,100685.53
2019-02-03T00:07:02.926Z,100680.96
2019-02-03T00:08:04.820Z,100680.11
2019-02-03T00:09:20.473Z,100681.38
2019-02-03T00:10:27.301Z,100687.29
2019-02-03T00:11:34.684Z,100687.31
2019-02-03T00:12:41.391Z,100688.55
2019-02-03T00:13:48.529Z,100699.03
2019-02-03T00:14:55.344Z,100700.28
2019-02-03T00:16:02.091Z,100699.78
2019-02-03T00:17:08.856Z,100695.54
2019-02-03T00:18:15.817Z,100702.22
2019-02-03T00:19:22.974Z,100701.37
2019-02-03T00:20:30.362Z,100703.95
2019-02-03T00:21:37.334Z,100701.00
2019-02-03T00:22:44.079Z,100696.83
2019-02-03T00:23:51.161Z,100698.92
2019-02-03T00:24:58.156Z,100707.80
2019-02-03T00:26:05.828Z,100704.04
2019-02-03T00:27:12.826Z,100709.11
2019-02-03T00:28:19.551Z,100703.62
2019-02-03T00:29:26.984Z,100706.56
2019-02-03T00:30:34.027Z,100707.87
2019-02-03T00:31:40.755Z,100712.09
2019-02-03T00:32:47.591Z,100717.19
2019-02-03T00:33:54.683Z,100719.28
2019-02-03T00:35:01.429Z,100715.92
2019-02-03T00:36:08.500Z,100718.91
2019-02-03T00:37:17.510Z,100710.52
2019-02-03T00:38:24.562Z,100711.34
2019-02-03T00:39:32.587Z,100715.13
2019-02-03T00:40:39.750Z,100716.81
2019-02-03T00:41:47.342Z,100715.57
2019-02-03T00:42:55.098Z,100715.58
2019-02-03T00:44:02.260Z,100718.11
2019-02-03T00:45:11.488Z,100718.97
2019-02-03T00:46:18.992Z,100726.95
2019-02-03T00:47:25.735Z,100720.23
2019-02-03T00:48:32.460Z,100725.75
2019-02-03T00:49:39.484Z,100721.91
2019-02-03T00:50:46.822Z,100721.89
2019-02-03T00:51:53.762Z,100724.77
2019-02-03T00:53:00.442Z,100722.25
2019-02-03T00:54:07.735Z,100719.31
2019-02-03T00:55:16.695Z,100721.43
2019-02-03T00:56:23.850Z,100718.84
2019-02-03T00:57:32.410Z,100717.20
2019-02-03T00:58:39.334Z,100721.78
2019-02-03T00:59:46.290Z,100724.27
2019-02-03T01:00:53.060Z,100725.45
2019-02-03T01:02:00.242Z,100726.28
2019-02-03T01:03:07.172Z,100728.77
2019-02-03T01:04:13.824Z,100732.09
2019-02-03T01:05:20.655Z,100729.16
2019-02-03T01:06:27.527Z,100735.05
2019-02-03T01:07:34.337Z,100735.95
2019-02-03T01:08:40.998Z,100739.73
2019-02-03T01:09:47.679Z,100739.30
2019-02-03T01:10:54.708Z,100741.02
2019-02-03T01:12:01.440Z,100744.32
2019-02-03T01:13:08.743Z,100746.05
2019-02-03T01:14:15.875Z,100744.81
2019-02-03T01:15:22.886Z,100744.07
2019-02-03T01:16:29.563Z,100742.03
2019-02-03T01:17:36.262Z,100739.95
2019-02-03T01:18:43.333Z,100742.05
2019-02-03T01:19:50.056Z,100743.77
2019-02-03T01:20:56.919Z,100745.00
2019-02-03T01:22:03.591Z,100745.84
2019-02-03T01:23:10.249Z,100752.17
2019-02-03T01:24:16.918Z,100753.05
2019-02-03T01:25:23.955Z,100753.92
2019-02-03T01:26:31.245Z,100751.80
2019-02-03T01:27:37.941Z,100753.05
2019-02-03T01:28:44.650Z,100755.52
2019-02-03T01:29:51.754Z,100757.19
2019-02-03T01:30:58.463Z,100761.45
2019-02-03T01:32:05.502Z,100756.77
2019-02-03T01:33:12.190Z,100765.13
2019-02-03T01:34:18.873Z,100760.94
2019-02-03T01:35:26.051Z,100767.64
2019-02-03T01:36:33.141Z,100767.66
2019-02-03T01:37:40.506Z,100774.34
2019-02-03T01:38:49.312Z,100763.41
2019-02-03T01:39:56.365Z,100774.34
2019-02-03T01:41:03.394Z,100770.46
2019-02-03T01:42:10.244Z,100771.31
2019-02-03T01:43:17.172Z,100769.63
2019-02-03T01:44:23.848Z,100770.44
2019-02-03T01:45:30.555Z,100774.20
2019-02-03T01:46:37.374Z,100771.63
2019-02-03T01:47:44.204Z,100776.67
2019-02-03T01:48:50.925Z,100771.20
2019-02-03T01:49:57.659Z,100765.72
2019-02-03T01:51:04.513Z,100771.16
2019-02-03T01:52:11.184Z,100771.53
2019-02-03T01:53:17.935Z,100772.34
2019-02-03T01:54:26.367Z,100772.31
2019-02-03T01:55:33.119Z,100770.16
2019-02-03T01:56:39.773Z,100773.05
2019-02-03T01:57:46.501Z,100776.05
2019-02-03T01:58:53.205Z,100779.80
2019-02-03T01:59:59.944Z,100783.11
2019-02-03T02:01:07.399Z,100786.00
2019-02-03T02:02:14.111Z,100791.80
2019-02-03T02:03:20.840Z,100785.92
2019-02-03T02:04:27.516Z,100793.43
2019-02-03T02:05:35.000Z,100792.00
2019-02-03T02:06:41.738Z,100794.08
2019-02-03T02:07:51.571Z,100788.67
2019-02-03T02:08:58.271Z,100787.86
2019-02-03T02:10:06.466Z,100787.41
2019-02-03T02:11:13.408Z,100790.41
2019-02-03T02:12:20.180Z,100795.95
2019-02-03T02:13:26.856Z,100791.70
2019-02-03T02:14:33.557Z,100798.45
2019-02-03T02:15:40.297Z,100799.73
2019-02-03T02:16:46.990Z,100805.62
2019-02-03T02:17:54.329Z,100805.14
2019-02-03T02:19:01.313Z,100805.98
2019-02-03T02:20:11.857Z,100806.77
2019-02-03T02:21:18.686Z,100813.09
2019-02-03T02:22:25.351Z,100809.28
2019-02-03T02:23:32.384Z,100813.91
2019-02-03T02:24:39.205Z,100812.20
2019-02-03T02:25:45.957Z,100807.94
2019-02-03T02:26:52.645Z,100820.99
2019-02-03T02:28:00.059Z,100823.09
2019-02-03T02:29:07.164Z,100823.56
2019-02-03T02:30:17.157Z,100827.47
2019-02-03T02:31:23.847Z,100832.11
2019-02-03T02:32:30.596Z,100830.09
2019-02-03T02:33:37.649Z,100829.73
2019-02-03T02:34:45.137Z,100830.18
2019-02-03T02:35:52.343Z,100833.15
2019-02-03T02:36:59.403Z,100841.48
2019-02-03T02:38:07.487Z,100845.25
2019-02-03T02:39:14.565Z,100848.16
2019-02-03T02:40:25.456Z,100847.30
2019-02-03T02:41:32.866Z,100850.30
2019-02-03T02:42:39.887Z,100851.19
2019-02-03T02:43:46.610Z,100857.55
2019-02-03T02:44:53.568Z,100855.92
2019-02-03T02:46:00.724Z,100860.64
2019-02-03T02:47:07.436Z,100853.13
2019-02-03T02:48:14.126Z,100861.64
2019-02-03T02:49:20.788Z,100857.91
2019-02-03T02:50:37.320Z,100863.45
2019-02-03T02:51:43.991Z,100863.45
2019-02-03T02:52:50.878Z,100863.40
2019-02-03T02:53:58.954Z,100858.38
2019-02-03T02:55:06.539Z,100860.51
2019-02-03T02:56:13.405Z,100864.30
2019-02-03T02:57:20.095Z,100860.53
2019-02-03T02:58:26.784Z,100866.45
2019-02-03T02:59:33.446Z,100869.76
2019-02-03T03:00:40.141Z,100866.01
2019-02-03T03:01:47.004Z,100861.80
2019-02-03T03:02:53.721Z,100863.09
2019-02-03T03:04:00.388Z,100854.59
2019-02-03T03:05:09.049Z,100871.84
2019-02-03T03:06:15.818Z,100869.76
2019-02-03T03:07:22.503Z,100868.87
2019-02-03T03:08:29.693Z,100865.95
2019-02-03T03:09:36.529Z,100868.42
2019-02-03T03:10:43.193Z,100865.48
2019-02-03T03:11:50.247Z,100863.40
2019-02-03T03:12:56.904Z,100871.45
2019-02-03T03:14:03.932Z,100877.33
2019-02-03T03:15:12.725Z,100871.84
2019-02-03T03:16:19.422Z,100878.59
2019-02-03T03:17:26.569Z,100881.56
2019-02-03T03:18:33.562Z,100877.78
2019-02-03T03:19:40.775Z,100881.56
2019-02-03T03:20:47.613Z,100879.93
2019-02-03T03:21:54.319Z,100885.00
2019-02-03T03:23:00.984Z,100879.59
2019-02-03T03:24:07.756Z,100881.73
2019-02-03T03:25:16.947Z,100880.41
2019-02-03T03:26:23.637Z,100885.06
2019-02-03T03:27:30.305Z,100885.09
2019-02-03T03:28:37.041Z,100881.83
2019-02-03T03:29:43.717Z,100880.93
2019-02-03T03:30:50.479Z,100882.58
2019-02-03T03:31:57.282Z,100875.41
2019-02-03T03:33:04.719Z,100873.73
2019-02-03T03:34:11.427Z,100883.88
2019-02-03T03:35:18.150Z,100882.69
2019-02-03T03:36:25.184Z,100884.75
2019-02-03T03:37:32.010Z,100890.18
2019-02-03T03:38:39.035Z,100886.00
2019-02-03T03:39:46.447Z,100893.20
2019-02-03T03:40:53.733Z,100890.60
2019-02-03T03:42:00.409Z,100898.17
2019-02-03T03:43:07.113Z,100899.02
2019-02-03T03:44:14.181Z,100902.02
2019-02-03T03:45:21.010Z,100900.30
2019-02-03T03:46:28.403Z,100901.20
2019-02-03T03:47:35.135Z,100904.11
2019-02-03T03:48:41.801Z,100904.61
2019-02-03T03:49:48.530Z,100902.56
2019-02-03T03:50:55.189Z,100902.09
2019-02-03T03:52:02.234Z,100908.84
2019-02-03T03:53:08.981Z,100908.77
2019-02-03T03:54:15.746Z,100907.19
2019-02-03T03:55:22.396Z,100912.66
2019-02-03T03:56:29.334Z,100910.58
2019-02-03T03:57:36.037Z,100916.86
2019-02-03T03:58:42.711Z,100913.02
2019-02-03T03:59:49.407Z,100911.03
2019-02-03T04:00:56.093Z,100907.24
2019-02-03T04:02:02.789Z,100905.53
2019-02-03T04:03:09.578Z,100913.89
2019-02-03T04:04:16.576Z,100910.58
2019-02-03T04:05:24.309Z,100908.05
2019-02-03T04:06:31.300Z,100909.72
2019-02-03T04:07:38.074Z,100914.77
2019-02-03T04:08:45.807Z,100911.89
2019-02-03T04:09:52.929Z,100911.16
2019-02-03T04:10:59.597Z,100915.75
2019-02-03T04:12:06.282Z,100917.09
2019-02-03T04:13:13.041Z,100916.13
2019-02-03T04:14:20.025Z,100918.23
2019-02-03T04:15:27.270Z,100911.39
2019-02-03T04:16:34.048Z,100917.31
2019-02-03T04:17:40.794Z,100916.91
2019-02-03T04:18:47.464Z,100919.81
2019-02-03T04:19:54.194Z,100911.71
2019-02-03T04:21:00.910Z,100917.12
2019-02-03T04:22:07.982Z,100909.48
2019-02-03T04:23:14.737Z,100911.16
2019-02-03T04:24:22.012Z,100915.02
2019-02-03T04:25:29.505Z,100922.20
2019-02-03T04:26:37.013Z,100912.05
2019-02-03T04:27:43.965Z,100917.41
2019-02-03T04:28:51.430Z,100918.78
2019-02-03T04:29:58.403Z,100921.22
2019-02-03T04:31:05.085Z,100924.53
2019-02-03T04:32:12.173Z,100924.51
2019-02-03T04:33:19.257Z,100923.22
2019-02-03T04:34:25.928Z,100926.97
2019-02-03T04:35:32.643Z,100932.89
2019-02-03T04:36:39.949Z,100931.63
2019-02-03T04:37:46.826Z,100936.19
2019-02-03T04:38:58.115Z,100932.02
2019-02-03T04:40:01.888Z,100935.44
2019-02-03T04:41:08.569Z,100933.78
2019-02-03T04:42:15.274Z,100938.38
2019-02-03T04:43:22.326Z,100937.97
2019-02-03T04:44:29.017Z,100941.66
2019-02-03T04:45:36.061Z,100941.72
2019-02-03T04:46:43.245Z,100952.56
2019-02-03T04:47:50.408Z,100945.36
2019-02-03T04:48:57.127Z,100952.90
2019-02-03T04:50:03.846Z,100950.07
2019-02-03T04:51:10.502Z,100960.52
2019-02-03T04:52:17.211Z,100956.66
2019-02-03T04:53:25.387Z,100958.39
2019-02-03T04:54:32.067Z,100951.70
2019-02-03T04:55:38.741Z,100951.22
2019-02-03T04:56:45.826Z,100954.58
2019-02-03T04:57:52.782Z,100954.16
2019-02-03T04:58:59.923Z,100956.72
2019-02-03T05:00:08.928Z,100960.13
2019-02-03T05:01:15.975Z,100952.53
2019-02-03T05:02:22.685Z,100961.39
2019-02-03T05:03:29.742Z,100961.42
2019-02-03T05:04:36.440Z,100959.41
2019-02-03T05:05:43.490Z,100972.45
2019-02-03T05:06:50.154Z,100980.50
2019-02-03T05:07:56.831Z,100978.36
2019-02-03T05:09:11.108Z,100981.72
2019-02-03T05:10:15.295Z,100988.91
2019-02-03T05:11:22.702Z,100998.12
2019-02-03T05:12:29.469Z,100994.19
2019-02-03T05:13:36.135Z,101001.34
2019-02-03T05:14:42.833Z,101008.09
2019-02-03T05:15:49.507Z,101015.63
2019-02-03T05:16:56.619Z,101016.51
2019-02-03T05:18:03.679Z,101024.11
2019-02-03T05:19:11.110Z,101024.44
2019-02-03T05:20:20.758Z,101034.42
2019-02-03T05:21:27.817Z,101039.08
2019-02-03T05:22:34.810Z,101044.94
2019-02-03T05:23:42.142Z,101050.79
2019-02-03T05:24:49.659Z,101056.64
2019-02-03T05:25:57.737Z,101065.93
2019-02-03T05:27:04.845Z,101067.06
2019-02-03T05:28:11.868Z,101064.14
2019-02-03T05:29:18.871Z,101065.44
2019-02-03T05:30:29.345Z,101070.77
2019-02-03T05:31:36.702Z,101069.45
2019-02-03T05:32:43.412Z,101071.86
2019-02-03T05:33:50.457Z,101072.22
2019-02-03T05:34:57.436Z,101070.95
2019-02-03T05:36:04.403Z,101075.96
2019-02-03T05:37:11.425Z,101077.22
2019-02-03T05:38:18.116Z,101081.84
2019-02-03T05:39:25.637Z,101087.73
2019-02-03T05:40:32.780Z,101089.83
2019-02-03T05:41:39.485Z,101090.67
2019-02-03T05:42:46.710Z,101097.59
2019-02-03T05:43:53.441Z,101101.34
2019-02-03T05:45:00.361Z,101102.95
2019-02-03T05:46:07.219Z,101103.80
2019-02-03T05:47:14.744Z,101112.69
2019-02-03T05:48:21.441Z,101116.81
2019-02-03T05:49:28.167Z,101117.23
2019-02-03T05:50:34.872Z,101119.33
2019-02-03T05:51:41.652Z,101119.68
2019-02-03T05:52:48.337Z,101121.25
2019-02-03T05:53:55.399Z,101133.02
2019-02-03T05:55:02.688Z,101136.41
2019-02-03T05:56:09.473Z,101130.11
2019-02-03T05:57:16.465Z,101138.51
2019-02-03T05:58:23.534Z,101145.19
2019-02-03T05:59:30.256Z,101146.80
2019-02-03T06:00:39.623Z,101148.44
2019-02-03T06:01:46.736Z,101150.23
2019-02-03T06:02:53.454Z,101151.11
2019-02-03T06:04:00.587Z,101148.55
2019-02-03T06:05:08.470Z,101156.04
2019-02-03T06:06:15.542Z,101157.25
2019-02-03T06:07:22.600Z,101162.56
2019-02-03T06:08:29.274Z,101165.00
2019-02-03T06:09:36.945Z,101173.40
2019-02-03T06:10:43.846Z,101170.45
2019-02-03T06:11:50.499Z,101177.55
2019-02-03T06:12:57.385Z,101182.39
2019-02-03T06:14:05.312Z,101185.63
2019-02-03T06:15:12.718Z,101183.95
2019-02-03T06:16:19.414Z,101187.68
2019-02-03T06:17:26.530Z,101198.59
2019-02-03T06:18:33.609Z,101192.81
2019-02-03T06:19:40.658Z,101200.91
2019-02-03T06:20:48.552Z,101201.41
2019-02-03T06:21:55.490Z,101203.97
2019-02-03T06:23:03.021Z,101195.99
2019-02-03T06:24:10.368Z,101202.25
2019-02-03T06:25:18.308Z,101203.85
2019-02-03T06:26:24.982Z,101206.78
2019-02-03T06:27:32.356Z,101205.99
2019-02-03T06:28:39.067Z,101207.75
2019-02-03T06:29:45.769Z,101213.72
2019-02-03T06:31:14.445Z,101212.55
2019-02-03T06:32:21.515Z,101212.58
2019-02-03T06:33:29.043Z,101218.92
2019-02-03T06:34:36.126Z,101225.30
2019-02-03T06:35:43.107Z,101226.65
2019-02-03T06:36:51.875Z,101224.17
2019-02-03T06:37:58.253Z,101225.55
2019-02-03T06:39:06.592Z,101235.22
2019-02-03T06:40:13.678Z,101233.11
2019-02-03T06:41:20.615Z,101234.72
2019-02-03T06:42:27.584Z,101235.05
2019-02-03T06:43:34.757Z,101235.47
2019-02-03T06:44:41.858Z,101233.11
2019-02-03T06:46:19.820Z,101233.49
2019-02-03T06:47:27.425Z,101234.45
2019-02-03T06:48:34.375Z,101226.31
2019-02-03T06:49:41.757Z,101222.11
2019-02-03T06:50:48.827Z,101228.80
2019-02-03T06:51:55.887Z,101226.19
2019-02-03T06:53:02.882Z,101232.58
2019-02-03T06:54:09.981Z,101236.47
2019-02-03T06:55:16.845Z,101240.00
2019-02-03T06:56:23.588Z,101245.05
2019-02-03T06:57:30.324Z,101248.64
2019-02-03T06:58:36.999Z,101249.41
2019-02-03T06:59:51.062Z,101248.91
2019-02-03T07:00:52.365Z,101249.28
2019-02-03T07:01:59.155Z,101249.20
2019-02-03T07:03:06.426Z,101234.45
2019-02-03T07:04:14.777Z,101239.66
2019-02-03T07:05:22.051Z,101243.18
2019-02-03T07:06:29.094Z,101243.64
2019-02-03T07:07:36.304Z,101248.64
2019-02-03T07:08:43.285Z,101245.25
2019-02-03T07:10:00.004Z,101252.05
2019-02-03T07:10:59.036Z,101250.37
2019-02-03T07:12:07.081Z,101249.14
2019-02-03T07:13:14.667Z,101258.43
2019-02-03T07:14:21.742Z,101255.91
2019-02-03T07:15:28.501Z,101255.91
2019-02-03T07:16:41.048Z,101264.62
2019-02-03T07:17:43.903Z,101262.94
2019-02-03T07:18:51.017Z,101264.69
2019-02-03T07:19:57.959Z,101269.24
2019-02-03T07:21:05.440Z,101269.58
2019-02-03T07:22:12.423Z,101276.98
2019-02-03T07:23:20.285Z,101272.77
2019-02-03T07:24:27.442Z,101275.25
2019-02-03T07:25:34.199Z,101275.09
2019-02-03T07:26:40.958Z,101279.08
2019-02-03T07:27:47.930Z,101273.53
2019-02-03T07:28:54.572Z,101281.00
2019-02-03T07:30:01.255Z,101281.42
2019-02-03T07:31:08.081Z,101281.42
2019-02-03T07:32:15.747Z,101276.38
2019-02-03T07:33:22.432Z,101277.18
2019-02-03T07:34:29.113Z,101279.61
2019-02-03T07:35:35.863Z,101277.14
2019-02-03T07:36:42.694Z,101274.90
2019-02-03T07:37:49.544Z,101280.83
2019-02-03T07:38:56.225Z,101280.28
2019-02-03T07:40:12.218Z,101278.59
2019-02-03T07:41:11.303Z,101278.08
2019-02-03T07:42:18.071Z,101276.83
2019-02-03T07:43:25.511Z,101278.55
2019-02-03T07:44:32.558Z,101274.31
2019-02-03T07:45:39.671Z,101271.70
2019-02-03T07:46:47.799Z,101275.02
2019-02-03T07:47:54.659Z,101271.23
2019-02-03T07:49:01.372Z,101271.28
2019-02-03T07:50:08.565Z,101275.98
2019-02-03T07:51:15.357Z,101274.69
2019-02-03T07:52:22.131Z,101274.73
2019-02-03T07:53:28.847Z,101278.04
2019-02-03T07:54:35.839Z,101276.36
2019-02-03T07:55:42.951Z,101276.78
2019-02-03T07:56:50.007Z,101273.89
2019-02-03T07:57:56.983Z,101283.12
2019-02-03T07:59:03.711Z,101281.03
2019-02-03T08:00:11.678Z,101281.86
2019-02-03T08:01:18.746Z,101285.64
2019-02-03T08:02:25.673Z,101289.84
2019-02-03T08:03:32.780Z,101286.40
2019-02-03T08:04:39.728Z,101291.94
2019-02-03T08:05:47.442Z,101294.97
2019-02-03T08:06:54.147Z,101298.84
2019-02-03T08:08:00.803Z,101295.06
2019-02-03T08:09:11.758Z,101294.69
2019-02-03T08:10:26.343Z,101305.98
2019-02-03T08:11:28.127Z,101306.95
2019-02-03T08:12:35.266Z,101309.05
2019-02-03T08:13:42.112Z,101310.08
2019-02-03T08:14:48.825Z,101311.24
2019-02-03T08:15:55.530Z,101312.92
2019-02-03T08:17:02.231Z,101311.24
2019-02-03T08:18:09.346Z,101313.34
2019-02-03T08:19:16.088Z,101309.61
2019-02-03T08:20:23.014Z,101310.91
2019-02-03T08:21:30.347Z,101312.69
2019-02-03T08:22:37.219Z,101310.99
2019-02-03T08:23:44.700Z,101317.44
2019-02-03T08:24:51.798Z,101314.11
2019-02-03T08:25:58.444Z,101317.09
2019-02-03T08:27:05.591Z,101318.70
2019-02-03T08:28:12.298Z,101322.09
2019-02-03T08:29:19.450Z,101322.23
2019-02-03T08:30:26.934Z,101330.75
2019-02-03T08:31:33.689Z,101333.28
2019-02-03T08:32:40.450Z,101340.89
2019-02-03T08:33:47.137Z,101337.62
2019-02-03T08:34:53.891Z,101343.62
2019-02-03T08:36:00.976Z,101344.17
2019-02-03T08:37:07.833Z,101343.04
2019-02-03T08:38:14.619Z,101346.82
2019-02-03T08:39:21.281Z,101348.55
2019-02-03T08:40:36.787Z,101360.40
2019-02-03T08:41:36.531Z,101354.52
2019-02-03T08:42:43.494Z,101362.16
2019-02-03T08:43:50.418Z,101366.08
2019-02-03T08:44:58.136Z,101367.42
2019-02-03T08:46:05.303Z,101367.88
2019-02-03T08:47:12.003Z,101367.59
2019-02-03T08:48:18.693Z,101365.44
2019-02-03T08:49:25.777Z,101365.94
2019-02-03T08:50:32.458Z,101362.70
2019-02-03T08:51:39.162Z,101367.11
2019-02-03T08:52:46.062Z,101365.50
2019-02-03T08:53:53.225Z,101360.45
2019-02-03T08:55:00.309Z,101364.86
2019-02-03T08:56:07.435Z,101365.05
2019-02-03T08:57:14.161Z,101364.25
2019-02-03T08:58:21.248Z,101371.59
2019-02-03T08:59:27.921Z,101371.44
2019-02-03T09:00:53.739Z,101370.70
2019-02-03T09:02:01.109Z,101379.27
2019-02-03T09:03:08.823Z,101379.59
2019-02-03T09:04:15.879Z,101379.98
2019-02-03T09:05:22.588Z,101382.22
2019-02-03T09:06:29.671Z,101383.94
2019-02-03T09:07:36.746Z,101387.34
2019-02-03T09:08:43.822Z,101382.84
2019-02-03T09:09:51.555Z,101382.19
2019-02-03T09:10:59.005Z,101386.75
2019-02-03T09:12:06.039Z,101394.92
2019-02-03T09:13:13.035Z,101392.47
2019-02-03T09:14:19.813Z,101388.43
2019-02-03T09:15:27.727Z,101393.88
2019-02-03T09:16:34.774Z,101406.26
2019-02-03T09:17:41.749Z,101400.19
2019-02-03T09:18:48.450Z,101405.28
2019-02-03T09:19:57.913Z,101404.23
2019-02-03T09:21:03.860Z,101405.56
2019-02-03T09:22:10.546Z,101402.78
2019-02-03T09:23:17.285Z,101401.55
2019-02-03T09:24:24.344Z,101400.68
2019-02-03T09:25:31.312Z,101406.97
2019-02-03T09:26:38.399Z,101406.26
2019-02-03T09:27:45.455Z,101403.34
2019-02-03T09:28:52.230Z,101408.50
2019-02-03T09:29:59.311Z,101409.83
2019-02-03T09:31:06.578Z,101410.73
2019-02-03T09:32:13.696Z,101408.63
2019-02-03T09:33:20.439Z,101410.00
2019-02-03T09:34:27.143Z,101412.52
2019-02-03T09:35:33.949Z,101410.13
2019-02-03T09:36:40.615Z,101417.42
2019-02-03T09:37:47.817Z,101414.56
2019-02-03T09:38:55.002Z,101418.12
2019-02-03T09:40:02.085Z,101420.72
2019-02-03T09:41:08.868Z,101415.72
2019-02-03T09:42:16.128Z,101422.44
2019-02-03T09:43:23.103Z,101425.03
2019-02-03T09:44:30.182Z,101428.95
2019-02-03T09:45:36.863Z,101428.09
2019-02-03T09:46:43.716Z,101426.44
2019-02-03T09:47:50.814Z,101429.03
2019-02-03T09:48:57.466Z,101427.41
2019-02-03T09:50:04.940Z,101431.23
2019-02-03T09:51:11.686Z,101436.71
2019-02-03T09:52:18.415Z,101434.70
2019-02-03T09:53:25.128Z,101438.16
2019-02-03T09:54:32.453Z,101430.70
2019-02-03T09:55:39.195Z,101439.95
2019-02-03T09:56:46.092Z,101441.37
2019-02-03T09:57:53.111Z,101444.41
2019-02-03T09:59:00.492Z,101444.04
2019-02-03T10:00:12.407Z,101450.31
2019-02-03T10:01:19.349Z,101447.38
2019-02-03T10:02:26.359Z,101443.61
2019-02-03T10:03:33.564Z,101445.33
2019-02-03T10:04:40.355Z,101452.56
2019-02-03T10:05:47.129Z,101442.52
2019-02-03T10:06:54.199Z,101443.87
2019-02-03T10:08:01.232Z,101446.50
2019-02-03T10:09:09.898Z,101450.83
2019-02-03T10:10:22.818Z,101450.45
2019-02-03T10:11:29.537Z,101445.92
2019-02-03T10:12:36.210Z,101449.34
2019-02-03T10:13:43.188Z,101454.39
2019-02-03T10:14:49.915Z,101454.88
2019-02-03T10:15:56.946Z,101454.47
2019-02-03T10:17:03.946Z,101459.17
2019-02-03T10:18:12.167Z,101458.39
2019-02-03T10:19:18.898Z,101457.27
2019-02-03T10:20:26.009Z,101461.94
2019-02-03T10:21:32.765Z,101461.52
2019-02-03T10:22:39.754Z,101461.53
2019-02-03T10:23:46.882Z,101456.56
2019-02-03T10:24:53.766Z,101461.31
2019-02-03T10:26:00.447Z,101463.47
2019-02-03T10:27:07.383Z,101466.03
2019-02-03T10:28:14.042Z,101465.67
2019-02-03T10:29:20.802Z,101470.77
2019-02-03T10:30:28.372Z,101467.91
2019-02-03T10:31:35.024Z,101470.85
2019-02-03T10:32:41.669Z,101472.16
2019-02-03T10:33:48.349Z,101477.22
2019-02-03T10:34:55.017Z,101478.92
2019-02-03T10:36:01.778Z,101478.98
2019-02-03T10:37:08.427Z,101477.80
2019-02-03T10:38:15.152Z,101484.20
2019-02-03T10:39:22.338Z,101476.59
2019-02-03T10:40:31.987Z,101485.89
2019-02-03T10:41:38.649Z,101480.87
2019-02-03T10:42:45.338Z,101484.22
2019-02-03T10:43:52.437Z,101484.64
2019-02-03T10:44:59.123Z,101485.53
2019-02-03T10:46:06.026Z,101490.24
2019-02-03T10:47:13.120Z,101478.35
2019-02-03T10:48:19.841Z,101486.05
2019-02-03T10:49:26.828Z,101486.57
2019-02-03T10:50:36.267Z,101492.53
2019-02-03T10:51:43.269Z,101484.12
2019-02-03T10:52:50.888Z,101491.76
2019-02-03T10:53:57.822Z,101487.95
2019-02-03T10:55:05.374Z,101487.60
2019-02-03T10:56:12.724Z,101490.14
2019-02-03T10:57:19.658Z,101490.16
2019-02-03T10:58:26.342Z,101493.58
2019-02-03T10:59:33.341Z,101498.19
2019-02-03T11:00:41.279Z,101504.91
2019-02-03T11:01:48.162Z,101501.61
2019-02-03T11:02:54.835Z,101504.23
2019-02-03T11:04:01.614Z,101506.38
2019-02-03T11:05:16.633Z,101507.63
2019-02-03T11:06:23.297Z,101513.53
2019-02-03T11:07:30.058Z,101513.94
2019-02-03T11:08:37.060Z,101518.67
2019-02-03T11:09:43.750Z,101514.47
2019-02-03T11:10:50.578Z,101514.55
2019-02-03T11:11:57.292Z,101516.71
2019-02-03T11:13:03.972Z,101524.80
2019-02-03T11:14:11.200Z,101524.36
2019-02-03T11:15:18.594Z,101524.77
2019-02-03T11:16:25.366Z,101525.57
2019-02-03T11:17:32.762Z,101525.57
2019-02-03T11:18:39.505Z,101523.94
2019-02-03T11:19:46.174Z,101530.63
2019-02-03T11:20:53.244Z,101528.94
2019-02-03T11:21:59.897Z,101530.26
2019-02-03T11:23:06.939Z,101532.39
2019-02-03T11:24:13.971Z,101531.55
2019-02-03T11:25:21.768Z,101532.86
2019-02-03T11:26:28.517Z,101537.09
2019-02-03T11:27:35.475Z,101539.64
2019-02-03T11:28:42.329Z,101540.48
2019-02-03T11:29:48.991Z,101539.98
2019-02-03T11:30:55.677Z,101537.23
2019-02-03T11:32:02.329Z,101542.66
2019-02-03T11:33:10.174Z,101549.85
2019-02-03T11:34:17.303Z,101550.26
2019-02-03T11:35:25.453Z,101554.06
2019-02-03T11:36:32.836Z,101548.48
2019-02-03T11:37:39.903Z,101554.05
2019-02-03T11:38:47.311Z,101558.67
2019-02-03T11:39:54.381Z,101562.00
2019-02-03T11:41:01.607Z,101551.44
2019-02-03T11:42:08.253Z,101559.20
2019-02-03T11:43:14.951Z,101560.13
2019-02-03T11:44:21.980Z,101560.61
2019-02-03T11:45:35.632Z,101559.01
2019-02-03T11:46:42.322Z,101559.94
2019-02-03T11:47:49.074Z,101562.16
2019-02-03T11:48:56.022Z,101563.53
2019-02-03T11:50:02.769Z,101564.83
2019-02-03T11:51:09.769Z,101567.44
2019-02-03T11:52:16.464Z,101567.87
2019-02-03T11:53:27.778Z,101570.81
2019-02-03T11:54:34.921Z,101570.41
2019-02-03T11:55:41.629Z,101571.31
2019-02-03T11:56:49.246Z,101573.48
2019-02-03T11:57:56.111Z,101576.88
2019-02-03T11:59:02.987Z,101581.63
2019-02-03T12:00:16.876Z,101574.89
2019-02-03T12:01:23.589Z,101573.60
2019-02-03T12:02:41.498Z,101574.09
2019-02-03T12:03:38.863Z,101576.70
2019-02-03T12:04:45.958Z,101572.48
2019-02-03T12:05:52.627Z,101580.50
2019-02-03T12:06:59.584Z,101585.16
2019-02-03T12:08:06.933Z,101583.52
2019-02-03T12:09:13.807Z,101581.41
2019-02-03T12:10:24.737Z,101584.41
2019-02-03T12:11:31.721Z,101584.44
2019-02-03T12:12:38.695Z,101585.67
2019-02-03T12:13:45.934Z,101591.27
2019-02-03T12:14:53.181Z,101586.95
2019-02-03T12:15:59.873Z,101594.23
2019-02-03T12:17:06.797Z,101591.27
2019-02-03T12:18:13.477Z,101587.48
2019-02-03T12:19:20.160Z,101587.06
2019-02-03T12:20:26.985Z,101586.69
2019-02-03T12:21:33.686Z,101595.94
2019-02-03T12:22:40.366Z,101591.21
2019-02-03T12:23:47.069Z,101592.44
2019-02-03T12:24:54.097Z,101597.17
2019-02-03T12:26:00.801Z,101588.66
2019-02-03T12:27:07.564Z,101590.69
2019-02-03T12:28:14.442Z,101589.89
2019-02-03T12:29:21.226Z,101589.89
2019-02-03T12:30:32.999Z,101593.33
2019-02-03T12:31:39.816Z,101591.22
2019-02-03T12:32:46.470Z,101598.88
2019-02-03T12:33:53.523Z,101597.19
2019-02-03T12:35:00.533Z,101600.16
2019-02-03T12:36:07.204Z,101592.07
2019-02-03T12:37:13.899Z,101601.39
2019-02-03T12:38:20.586Z,101598.86
2019-02-03T12:39:27.956Z,101601.83
2019-02-03T12:40:35.096Z,101602.19
2019-02-03T12:41:42.066Z,101598.38
2019-02-03T12:42:49.257Z,101599.64
2019-02-03T12:43:56.358Z,101600.92
2019-02-03T12:45:03.065Z,101604.36
2019-02-03T12:46:09.748Z,101603.53
2019-02-03T12:47:19.180Z,101607.80